Pierre, SD

4:30 PM MST on February 12, 2016 (GMT -0700)
Pierre Regional | | Change Station
CLOSE
Current Station
Airport
Location: Pierre,
Elevation: 1742 ft
Nearby Weather Stations
Active Advisory: Winter Weather Advisory

Elev 1742 ft 44.38 °N, 100.29 °W | Updated 37 minutes ago

Overcast
Overcast
20 °F
Feels Like 9 °F
N
10
Wind Variable Wind from East

Today
High -- | Low -- °F
--% Chance of Precip.
Yesterday
High -- | Low -- °F
Precip. -- in
Pressure 30.61 in
Visibility 10.0 miles
Clouds Overcast 5000 ft
Windchill 9 °F
Dew Point 10 °F
Humidity 65%
Rainfall 0.00 in
Snow Depth Not available.
6:45 AM 5:05 PM
Waxing Crescent, 24% visible
METAR KPIR 122253Z AUTO 09009KT 10SM OVC050 M07/M12 A3052 RMK AO2 SLP364 T10671122
Pressure 30.61 in
Visibility 10.0 miles
Clouds Overcast 5000 ft
Windchill 9 °F
Dew Point 10 °F
Humidity 65%
Rainfall 0.00 in
Snow Depth Not available.
6:45 AM 5:05 PM
Waxing Crescent, 24% visible
METAR KPIR 122253Z AUTO 09009KT 10SM OVC050 M07/M12 A3052 RMK AO2 SLP364 T10671122

10-Day Weather Forecast

Almanac

Astronomy

Feb. 12, 2016 Rise Set
Actual Time
Civil Twilight
Nautical Twilight
Astronomical Twilight
Moon
Length of Visible Light
Length of Day
Tomorrow will be .
, % of the Moon is Illuminated

Today's Extremes

State Highs State Lows

Community

WunderPhotos

Upload Photos

1,892,436 photos uploaded!

WunderBlog® & News

Nearby

Air Quality

  Air Quality AQ Index Pollutant
Not available.

Snow Depth

Station Depth Elevation

Earthquake Activity

City Distance Mag. Time & Date
Minimum magnitude displayed is 2.5.

Coastal Water Temperatures

Place Temperature

Stations

Nearby Weather Stations

Station Location Temp. Windchill Dew Point Humidity Wind Precip. Elev Updated Type
                   

Watches & Warnings

Winter Weather Advisory
Issued: 2:14 PM MST Feb. 12, 2016 – National Weather Service

... Winter Weather Advisory in effect from 9 am CST /8 am MST/ to
9 PM CST /8 PM MST/ Saturday...

The National Weather Service in Aberdeen has issued a Winter
Weather Advisory for a wintry mix of light snow and light freezing
rain... which is in effect from 9 am CST /8 am MST/ to 9 PM CST /8
PM MST/ Saturday.

* Timing... by mid Saturday morning until early Saturday evening

* main impact... 1 to 3 inches of snow is expected... but so is the
potential for a trace to as much as a tenth of an inch of ice
accumulation

* other impacts... breezy south winds of 15 to 25 mph with higher
gusts will gradually decrease throughout the day Saturday... but
not before adding to the potentially hazardous traveling
conditions created by a combination of snow and freezing rain

Precautionary/preparedness actions...

A Winter Weather Advisory means that periods of snow... sleet... or
freezing rain will cause travel difficulties. Be prepared for
slippery roads and limited visibilities... and use caution while
driving.